createdAt,value
2017-12-08T00:00:12.254Z,1000.21
2017-12-08T00:02:05.409Z,1000.17
2017-12-08T00:03:05.414Z,1000.17
2017-12-08T00:04:58.562Z,1000.17
2017-12-08T00:05:58.574Z,1000.15
2017-12-08T00:07:51.734Z,1000.13
2017-12-08T00:08:51.748Z,1000.14
2017-12-08T00:10:44.887Z,1000.18
2017-12-08T00:11:44.928Z,1000.16
2017-12-08T00:13:38.065Z,1000.18
2017-12-08T00:14:38.056Z,1000.11
2017-12-08T00:16:31.223Z,1000.17
2017-12-08T00:17:31.224Z,1000.17
2017-12-08T00:19:24.366Z,1000.15
2017-12-08T00:20:24.380Z,1000.16
2017-12-08T00:22:17.544Z,1000.18
2017-12-08T00:23:17.549Z,1000.15
2017-12-08T00:25:10.712Z,1000.12
2017-12-08T00:26:10.710Z,1000.12
2017-12-08T00:28:03.862Z,1000.10
2017-12-08T00:29:03.868Z,1000.05
2017-12-08T00:30:57.010Z,1000.09
2017-12-08T00:31:57.029Z,1000.06
2017-12-08T00:33:50.188Z,1000.06
2017-12-08T00:34:50.184Z,1000.05
2017-12-08T00:36:43.355Z,1000.09
2017-12-08T00:37:43.339Z,1000.08
2017-12-08T00:39:36.505Z,999.93
2017-12-08T00:40:36.515Z,999.96
2017-12-08T00:42:29.659Z,999.90
2017-12-08T00:43:29.689Z,999.84
2017-12-08T00:45:22.840Z,999.83
2017-12-08T00:46:22.835Z,999.88
2017-12-08T00:48:15.998Z,999.83
2017-12-08T00:49:15.988Z,999.83
2017-12-08T00:51:09.891Z,999.83
2017-12-08T00:52:09.142Z,999.79
2017-12-08T00:54:02.323Z,999.80
2017-12-08T00:55:02.309Z,999.82
2017-12-08T00:56:55.458Z,999.78
2017-12-08T00:57:55.468Z,999.80
2017-12-08T00:59:48.629Z,999.75
2017-12-08T01:00:48.628Z,999.79
2017-12-08T01:02:41.793Z,999.75
2017-12-08T01:03:41.789Z,999.77
2017-12-08T01:05:49.267Z,999.74
2017-12-08T01:06:49.328Z,999.74
2017-12-08T01:08:42.446Z,999.68
2017-12-08T01:09:42.451Z,999.70
2017-12-08T01:11:35.589Z,999.67
2017-12-08T01:12:35.610Z,999.66
2017-12-08T01:14:28.761Z,999.65
2017-12-08T01:15:28.779Z,999.72
2017-12-08T01:17:21.913Z,999.65
2017-12-08T01:18:21.931Z,999.68
2017-12-08T01:20:15.098Z,999.68
2017-12-08T01:21:15.100Z,999.75
2017-12-08T01:23:08.250Z,999.72
2017-12-08T01:24:08.257Z,999.72
2017-12-08T01:26:13.111Z,999.71
2017-12-08T01:27:13.127Z,999.69
2017-12-08T01:29:06.307Z,999.69
2017-12-08T01:30:06.308Z,999.69
2017-12-08T01:31:59.452Z,999.66
2017-12-08T01:32:59.480Z,999.73
2017-12-08T01:34:52.647Z,999.79
2017-12-08T01:35:52.653Z,999.76
2017-12-08T01:37:45.806Z,999.71
2017-12-08T01:38:45.815Z,999.68
2017-12-08T01:40:38.967Z,999.64
2017-12-08T01:41:38.975Z,999.60
2017-12-08T01:43:32.156Z,999.60
2017-12-08T01:44:32.154Z,999.64
2017-12-08T01:46:25.319Z,999.61
2017-12-08T01:47:25.314Z,999.58
2017-12-08T01:49:18.465Z,999.58
2017-12-08T01:50:18.480Z,999.54
2017-12-08T01:52:11.621Z,999.51
2017-12-08T01:53:11.642Z,999.51
2017-12-08T01:55:19.152Z,999.44
2017-12-08T01:56:19.142Z,999.44
2017-12-08T01:58:12.312Z,999.47
2017-12-08T01:59:12.298Z,999.44
2017-12-08T02:01:05.442Z,999.39
2017-12-08T02:02:05.456Z,999.41
2017-12-08T02:03:58.620Z,999.41
2017-12-08T02:04:58.617Z,999.42
2017-12-08T02:06:51.752Z,999.37
2017-12-08T02:07:51.770Z,999.36
2017-12-08T02:09:44.931Z,999.35
2017-12-08T02:10:44.933Z,999.37
2017-12-08T02:12:38.080Z,999.42
2017-12-08T02:13:38.096Z,999.41
2017-12-08T02:15:31.249Z,999.41
2017-12-08T02:16:31.250Z,999.40
2017-12-08T02:18:24.436Z,999.46
2017-12-08T02:19:24.431Z,999.52
2017-12-08T02:21:17.658Z,999.50
2017-12-08T02:22:17.712Z,999.53
2017-12-08T02:24:10.826Z,999.49
2017-12-08T02:25:10.826Z,999.51
2017-12-08T02:27:03.975Z,999.55
2017-12-08T02:28:03.992Z,999.47
2017-12-08T02:29:57.144Z,999.49
2017-12-08T02:30:57.146Z,999.43
2017-12-08T02:32:50.284Z,999.52
2017-12-08T02:33:50.304Z,999.46
2017-12-08T02:35:43.457Z,999.44
2017-12-08T02:36:43.470Z,999.43
2017-12-08T02:38:36.626Z,999.49
2017-12-08T02:39:36.628Z,999.50
2017-12-08T02:41:29.758Z,999.49
2017-12-08T02:42:29.786Z,999.47
2017-12-08T02:44:22.947Z,999.47
2017-12-08T02:45:22.934Z,999.44
2017-12-08T02:47:16.076Z,999.42
2017-12-08T02:48:16.094Z,999.37
2017-12-08T02:50:09.274Z,999.43
2017-12-08T02:51:09.253Z,999.39
2017-12-08T02:53:02.395Z,999.36
2017-12-08T02:54:02.412Z,999.38
2017-12-08T02:55:55.579Z,999.32
2017-12-08T02:56:55.570Z,999.35
2017-12-08T02:58:48.757Z,999.33
2017-12-08T02:59:48.759Z,999.35
2017-12-08T03:01:41.905Z,999.28
2017-12-08T03:02:41.923Z,999.29
2017-12-08T03:04:35.077Z,999.30
2017-12-08T03:05:35.074Z,999.32
2017-12-08T03:07:28.221Z,999.29
2017-12-08T03:08:28.229Z,999.28
2017-12-08T03:10:21.389Z,999.26
2017-12-08T03:11:21.392Z,999.26
2017-12-08T03:13:14.542Z,999.25
2017-12-08T03:14:14.552Z,999.19
2017-12-08T03:16:07.709Z,999.18
2017-12-08T03:17:07.712Z,999.19
2017-12-08T03:19:00.850Z,999.25
2017-12-08T03:20:00.875Z,999.22
2017-12-08T03:21:54.023Z,999.21
2017-12-08T03:22:54.030Z,999.23
2017-12-08T03:24:47.184Z,999.29
2017-12-08T03:25:47.189Z,999.24
2017-12-08T03:27:40.337Z,999.14
2017-12-08T03:28:40.342Z,999.10
2017-12-08T03:30:33.508Z,999.19
2017-12-08T03:31:33.495Z,999.15
2017-12-08T03:33:26.646Z,999.21
2017-12-08T03:34:26.658Z,999.20
2017-12-08T03:36:19.827Z,999.12
2017-12-08T03:37:19.824Z,999.08
2017-12-08T03:39:12.965Z,999.15
2017-12-08T03:40:12.993Z,999.10
2017-12-08T03:42:06.132Z,999.05
2017-12-08T03:43:06.136Z,999.14
2017-12-08T03:44:59.319Z,999.18
2017-12-08T03:45:59.314Z,999.21
2017-12-08T03:47:52.477Z,999.25
2017-12-08T03:48:52.498Z,999.24
2017-12-08T03:50:45.652Z,999.19
2017-12-08T03:51:45.709Z,999.18
2017-12-08T03:53:38.796Z,999.31
2017-12-08T03:54:38.815Z,999.30
2017-12-08T03:56:31.976Z,999.27
2017-12-08T03:57:31.978Z,999.34
2017-12-08T03:59:25.116Z,999.34
2017-12-08T04:00:25.124Z,999.34
2017-12-08T04:02:18.313Z,999.34
2017-12-08T04:03:18.306Z,999.34
2017-12-08T04:05:11.438Z,999.34
2017-12-08T04:06:11.453Z,999.28
2017-12-08T04:08:04.623Z,999.11
2017-12-08T04:09:04.611Z,999.10
2017-12-08T04:10:57.796Z,999.21
2017-12-08T04:11:57.861Z,999.25
2017-12-08T04:13:50.922Z,999.31
2017-12-08T04:14:50.938Z,999.29
2017-12-08T04:16:44.109Z,999.33
2017-12-08T04:17:44.100Z,999.34
2017-12-08T04:19:37.993Z,999.39
2017-12-08T04:20:37.261Z,999.39
2017-12-08T04:22:30.414Z,999.44
2017-12-08T04:23:30.423Z,999.48
2017-12-08T04:25:23.607Z,999.52
2017-12-08T04:26:23.578Z,999.52
2017-12-08T04:28:16.731Z,999.52
2017-12-08T04:29:16.738Z,999.51
2017-12-08T04:31:09.899Z,999.46
2017-12-08T04:32:09.902Z,999.53
2017-12-08T04:34:03.047Z,999.56
2017-12-08T04:35:03.063Z,999.58
2017-12-08T04:36:56.222Z,999.60
2017-12-08T04:37:56.231Z,999.60
2017-12-08T04:39:49.376Z,999.55
2017-12-08T04:40:49.392Z,999.59
2017-12-08T04:42:42.571Z,999.56
2017-12-08T04:43:42.566Z,999.54
2017-12-08T04:45:35.730Z,999.57
2017-12-08T04:46:35.736Z,999.57
2017-12-08T04:48:28.900Z,999.52
2017-12-08T04:49:28.928Z,999.61
2017-12-08T04:51:22.117Z,999.61
2017-12-08T04:52:22.124Z,999.55
2017-12-08T04:54:15.268Z,999.54
2017-12-08T04:55:15.283Z,999.54
2017-12-08T04:57:08.440Z,999.58
2017-12-08T04:58:08.436Z,999.53
2017-12-08T05:00:01.593Z,999.58
2017-12-08T05:01:01.609Z,999.59
2017-12-08T05:02:54.763Z,999.65
2017-12-08T05:03:54.772Z,999.64
2017-12-08T05:05:47.919Z,999.64
2017-12-08T05:06:47.930Z,999.64
2017-12-08T05:08:41.079Z,999.63
2017-12-08T05:09:41.092Z,999.60
2017-12-08T05:11:34.285Z,999.60
2017-12-08T05:12:34.272Z,999.61
2017-12-08T05:14:27.425Z,999.64
2017-12-08T05:15:27.451Z,999.62
2017-12-08T05:17:20.602Z,999.63
2017-12-08T05:18:20.602Z,999.63
2017-12-08T05:20:13.785Z,999.62
2017-12-08T05:21:13.805Z,999.61
2017-12-08T05:23:06.950Z,999.63
2017-12-08T05:24:06.954Z,999.62
2017-12-08T05:26:00.165Z,999.64
2017-12-08T05:27:00.174Z,999.60
2017-12-08T05:28:53.312Z,999.64
2017-12-08T05:29:53.326Z,999.63
2017-12-08T05:31:46.481Z,999.63
2017-12-08T05:32:46.489Z,999.62
2017-12-08T05:34:39.634Z,999.67
2017-12-08T05:35:39.650Z,999.70
2017-12-08T05:37:32.809Z,999.67
2017-12-08T05:38:32.813Z,999.64
2017-12-08T05:40:25.947Z,999.65
2017-12-08T05:41:25.966Z,999.67
2017-12-08T05:43:19.216Z,999.64
2017-12-08T05:44:19.132Z,999.65
2017-12-08T05:46:12.281Z,999.68
2017-12-08T05:47:12.290Z,999.64
2017-12-08T05:49:05.455Z,999.61
2017-12-08T05:50:05.459Z,999.59
2017-12-08T05:51:58.670Z,999.66
2017-12-08T05:52:58.672Z,999.68
2017-12-08T05:54:51.814Z,999.69
2017-12-08T05:55:51.833Z,999.69
2017-12-08T05:57:44.997Z,999.71
2017-12-08T05:58:44.999Z,999.64
2017-12-08T06:00:38.160Z,999.68
2017-12-08T06:01:38.169Z,999.69
2017-12-08T06:03:31.325Z,999.67
2017-12-08T06:04:31.328Z,999.67
2017-12-08T06:06:24.530Z,999.73
2017-12-08T06:07:24.547Z,999.75
2017-12-08T06:09:17.734Z,999.75
2017-12-08T06:10:17.718Z,999.68
2017-12-08T06:12:10.912Z,999.71
2017-12-08T06:13:10.905Z,999.70
2017-12-08T06:15:04.060Z,999.73
2017-12-08T06:16:04.084Z,999.73
2017-12-08T06:17:57.229Z,999.77
2017-12-08T06:18:57.238Z,999.78
2017-12-08T06:20:50.389Z,999.78
2017-12-08T06:21:50.403Z,999.84
2017-12-08T06:23:43.606Z,999.87
2017-12-08T06:24:43.599Z,999.83
2017-12-08T06:26:36.743Z,999.86
2017-12-08T06:27:36.760Z,999.82
2017-12-08T06:29:29.935Z,999.80
2017-12-08T06:30:29.923Z,999.86
2017-12-08T06:32:23.077Z,999.85
2017-12-08T06:33:23.089Z,999.77
2017-12-08T06:35:16.224Z,999.81
2017-12-08T06:36:16.255Z,999.82
2017-12-08T06:38:09.422Z,999.81
2017-12-08T06:39:09.418Z,999.82
2017-12-08T06:41:02.558Z,999.78
2017-12-08T06:42:02.579Z,999.72
2017-12-08T06:43:55.755Z,999.74
2017-12-08T06:44:55.734Z,999.77
2017-12-08T06:46:48.879Z,999.81
2017-12-08T06:47:48.898Z,999.79
2017-12-08T06:49:42.045Z,999.82
2017-12-08T06:50:42.049Z,999.85
2017-12-08T06:52:35.202Z,999.86
2017-12-08T06:53:35.202Z,999.92
2017-12-08T06:55:28.368Z,999.92
2017-12-08T06:56:28.366Z,999.96
2017-12-08T06:58:21.548Z,999.95
2017-12-08T06:59:21.573Z,1000.00
2017-12-08T07:01:14.710Z,1000.02
2017-12-08T07:02:14.722Z,1000.08
2017-12-08T07:04:07.918Z,1000.10
2017-12-08T07:05:07.921Z,1000.10
2017-12-08T07:07:01.072Z,1000.05
2017-12-08T07:08:01.081Z,1000.10
2017-12-08T07:09:54.229Z,1000.13
2017-12-08T07:10:54.231Z,1000.13
2017-12-08T07:12:47.385Z,1000.15
2017-12-08T07:13:47.393Z,1000.15
2017-12-08T07:15:40.533Z,1000.13
2017-12-08T07:16:40.572Z,1000.14
2017-12-08T07:18:33.724Z,1000.17
2017-12-08T07:19:33.739Z,1000.21
2017-12-08T07:21:26.861Z,1000.19
2017-12-08T07:22:26.875Z,1000.16
2017-12-08T07:24:20.066Z,1000.23
2017-12-08T07:25:20.051Z,1000.25
2017-12-08T07:27:13.953Z,1000.27
2017-12-08T07:28:13.221Z,1000.22
2017-12-08T07:30:06.382Z,1000.24
2017-12-08T07:31:06.386Z,1000.26
2017-12-08T07:32:59.558Z,1000.29
2017-12-08T07:33:59.548Z,1000.27
2017-12-08T07:35:52.717Z,1000.28
2017-12-08T07:36:52.708Z,1000.30
2017-12-08T07:38:45.888Z,1000.34
2017-12-08T07:39:45.870Z,1000.28
2017-12-08T07:41:39.019Z,1000.32
2017-12-08T07:42:39.028Z,1000.29
2017-12-08T07:44:32.185Z,1000.32
2017-12-08T07:45:32.192Z,1000.33
2017-12-08T07:47:25.331Z,1000.35
2017-12-08T07:48:25.348Z,1000.33
2017-12-08T07:50:18.502Z,1000.39
2017-12-08T07:51:18.514Z,1000.33
2017-12-08T07:53:11.666Z,1000.34
2017-12-08T07:54:11.659Z,1000.34
2017-12-08T07:56:04.897Z,1000.31
2017-12-08T07:57:04.900Z,1000.28
2017-12-08T07:58:58.070Z,1000.24
2017-12-08T07:59:58.074Z,1000.28
2017-12-08T08:01:51.239Z,1000.30
2017-12-08T08:02:51.251Z,1000.29
2017-12-08T08:04:44.420Z,1000.33
2017-12-08T08:05:44.407Z,1000.34
2017-12-08T08:07:37.550Z,1000.33
2017-12-08T08:08:37.567Z,1000.38
2017-12-08T08:10:48.081Z,1000.35
2017-12-08T08:11:48.093Z,1000.37
2017-12-08T08:13:41.295Z,1000.39
2017-12-08T08:14:41.324Z,1000.40
2017-12-08T08:16:34.484Z,1000.37
2017-12-08T08:17:34.497Z,1000.40
2017-12-08T08:19:27.643Z,1000.41
2017-12-08T08:20:27.640Z,1000.45
2017-12-08T08:22:20.801Z,1000.45
2017-12-08T08:23:20.823Z,1000.47
2017-12-08T08:25:13.972Z,1000.46
2017-12-08T08:26:13.971Z,1000.49
2017-12-08T08:28:07.118Z,1000.47
2017-12-08T08:29:07.134Z,1000.49
2017-12-08T08:31:00.298Z,1000.53
2017-12-08T08:32:00.300Z,1000.49
2017-12-08T08:33:53.493Z,1000.55
2017-12-08T08:34:53.510Z,1000.55
2017-12-08T08:36:46.663Z,1000.55
2017-12-08T08:37:46.648Z,1000.63
2017-12-08T08:39:39.784Z,1000.62
2017-12-08T08:40:39.815Z,1000.61
2017-12-08T08:42:32.959Z,1000.60
2017-12-08T08:43:32.963Z,1000.63
2017-12-08T08:45:26.119Z,1000.67
2017-12-08T08:46:26.125Z,1000.67
2017-12-08T08:48:19.283Z,1000.65
2017-12-08T08:49:19.291Z,1000.67
2017-12-08T08:51:12.438Z,1000.72
2017-12-08T08:52:12.434Z,1000.70
2017-12-08T08:54:05.595Z,1000.66
2017-12-08T08:55:05.599Z,1000.72
2017-12-08T08:56:58.766Z,1000.75
2017-12-08T08:57:58.795Z,1000.77
2017-12-08T08:59:51.975Z,1000.76
2017-12-08T09:00:51.973Z,1000.74
2017-12-08T09:02:45.247Z,1000.80
2017-12-08T09:03:45.144Z,1000.77
2017-12-08T09:05:38.295Z,1000.77
2017-12-08T09:06:38.298Z,1000.77
2017-12-08T09:08:31.439Z,1000.84
2017-12-08T09:09:31.453Z,1000.81
2017-12-08T09:11:24.613Z,1000.84
2017-12-08T09:12:24.614Z,1000.87
2017-12-08T09:14:17.753Z,1000.92
2017-12-08T09:15:17.778Z,1000.92
2017-12-08T09:17:10.940Z,1000.99
2017-12-08T09:18:10.936Z,1001.01
2017-12-08T09:20:04.069Z,1001.01
2017-12-08T09:21:04.073Z,1001.00
2017-12-08T09:22:57.240Z,1001.03
2017-12-08T09:23:57.227Z,1000.95
2017-12-08T09:25:50.407Z,1001.00
2017-12-08T09:26:50.414Z,1001.04
2017-12-08T09:28:43.571Z,1001.05
2017-12-08T09:29:43.589Z,1001.09
2017-12-08T09:31:36.750Z,1001.02
2017-12-08T09:32:36.753Z,1001.04
2017-12-08T09:34:30.036Z,1001.04
2017-12-08T09:35:29.894Z,1001.04
2017-12-08T09:37:23.072Z,1001.01
2017-12-08T09:38:23.055Z,1001.00
2017-12-08T09:40:16.217Z,1000.95
2017-12-08T09:41:16.218Z,1000.95
2017-12-08T09:43:09.364Z,1000.90
2017-12-08T09:44:09.392Z,1000.88
2017-12-08T09:46:02.535Z,1000.85
2017-12-08T09:47:02.544Z,1000.83
2017-12-08T09:48:55.684Z,1000.89
2017-12-08T09:49:55.701Z,1000.88
2017-12-08T09:51:48.870Z,1000.88
2017-12-08T09:52:48.867Z,1000.85
2017-12-08T09:54:42.042Z,1000.86
2017-12-08T09:55:42.029Z,1000.82
2017-12-08T09:57:35.199Z,1000.82
2017-12-08T09:58:35.186Z,1000.77
2017-12-08T10:00:28.418Z,1000.76
2017-12-08T10:01:28.415Z,1000.83
2017-12-08T10:03:21.579Z,1000.78
2017-12-08T10:04:21.608Z,1000.81
2017-12-08T10:06:14.745Z,1000.83
2017-12-08T10:07:14.746Z,1000.76
2017-12-08T10:09:07.880Z,1000.68
2017-12-08T10:10:07.955Z,1000.72
2017-12-08T10:12:01.077Z,1000.66
2017-12-08T10:13:01.060Z,1000.70
2017-12-08T10:14:54.221Z,1000.63
2017-12-08T10:15:54.222Z,1000.63
2017-12-08T10:17:47.390Z,1000.55
2017-12-08T10:18:47.381Z,1000.63
2017-12-08T10:20:40.533Z,1000.51
2017-12-08T10:21:40.527Z,1000.57
2017-12-08T10:23:33.677Z,1000.49
2017-12-08T10:24:33.686Z,1000.53
2017-12-08T10:26:26.860Z,1000.56
2017-12-08T10:27:26.861Z,1000.48
2017-12-08T10:29:20.016Z,1000.51
2017-12-08T10:30:20.023Z,1000.41
2017-12-08T10:32:13.266Z,1000.56
2017-12-08T10:33:13.160Z,1000.52
2017-12-08T10:35:06.312Z,1000.54
2017-12-08T10:36:06.333Z,1000.54
2017-12-08T10:37:59.551Z,1000.60
2017-12-08T10:38:59.532Z,1000.63
2017-12-08T10:40:52.710Z,1000.76
2017-12-08T10:41:52.716Z,1000.59
2017-12-08T10:43:45.891Z,1000.59
2017-12-08T10:44:45.882Z,1000.64
2017-12-08T10:46:39.049Z,1000.73
2017-12-08T10:47:39.039Z,1000.65
2017-12-08T10:49:32.241Z,1000.56
2017-12-08T10:50:32.260Z,1000.66
2017-12-08T10:52:25.409Z,1000.68
2017-12-08T10:53:25.419Z,1000.75
2017-12-08T10:55:18.595Z,1000.61
2017-12-08T10:56:18.617Z,1000.67
2017-12-08T10:58:11.894Z,1000.63
2017-12-08T10:59:11.789Z,1000.66
2017-12-08T11:01:04.917Z,1000.65
2017-12-08T11:02:04.930Z,1000.70
2017-12-08T11:03:58.153Z,1000.62
2017-12-08T11:04:58.166Z,1000.65
2017-12-08T11:06:51.319Z,1000.62
2017-12-08T11:07:51.324Z,1000.55
2017-12-08T11:09:44.490Z,1000.58
2017-12-08T11:10:44.512Z,1000.63
2017-12-08T11:12:37.676Z,1000.61
2017-12-08T11:13:37.683Z,1000.61
2017-12-08T11:15:30.821Z,1000.61
2017-12-08T11:16:30.852Z,1000.65
2017-12-08T11:18:24.009Z,1000.60
2017-12-08T11:19:23.997Z,1000.62
2017-12-08T11:21:17.178Z,1000.61
2017-12-08T11:22:17.167Z,1000.58
2017-12-08T11:24:10.303Z,1000.58
2017-12-08T11:25:10.312Z,1000.62
2017-12-08T11:27:03.463Z,1000.56
2017-12-08T11:28:03.470Z,1000.56
2017-12-08T11:29:56.607Z,1000.60
2017-12-08T11:30:56.623Z,1000.57
2017-12-08T11:32:49.791Z,1000.52
2017-12-08T11:33:49.790Z,1000.52
2017-12-08T11:35:42.930Z,1000.59
2017-12-08T11:36:42.956Z,1000.64
2017-12-08T11:38:36.106Z,1000.63
2017-12-08T11:39:36.113Z,1000.61
2017-12-08T11:41:29.253Z,1000.67
2017-12-08T11:42:29.282Z,1000.67
2017-12-08T11:44:22.438Z,1000.66
2017-12-08T11:45:22.440Z,1000.65
2017-12-08T11:47:15.588Z,1000.65
2017-12-08T11:48:15.625Z,1000.64
2017-12-08T11:50:08.849Z,1000.65
2017-12-08T11:51:08.853Z,1000.66
2017-12-08T11:53:02.020Z,1000.67
2017-12-08T11:54:02.011Z,1000.67
2017-12-08T11:55:55.196Z,1000.68
2017-12-08T11:56:55.211Z,1000.67
2017-12-08T11:58:48.410Z,1000.65
2017-12-08T11:59:48.430Z,1000.65
2017-12-08T12:01:41.551Z,1000.63
2017-12-08T12:02:41.570Z,1000.63
2017-12-08T12:04:34.731Z,1000.65
2017-12-08T12:05:34.739Z,1000.59
2017-12-08T12:07:27.884Z,1000.65
2017-12-08T12:08:28.630Z,1000.72
2017-12-08T12:10:21.025Z,1000.68
2017-12-08T12:11:21.042Z,1000.72
2017-12-08T12:13:14.233Z,1000.76
2017-12-08T12:14:14.224Z,1000.72
2017-12-08T12:16:07.408Z,1000.80
2017-12-08T12:17:07.379Z,1000.77
2017-12-08T12:19:00.539Z,1000.80
2017-12-08T12:20:00.539Z,1000.76
2017-12-08T12:21:53.687Z,1000.80
2017-12-08T12:22:53.747Z,1000.68
2017-12-08T12:24:46.920Z,1000.76
2017-12-08T12:25:46.908Z,1000.76
2017-12-08T12:27:40.072Z,1000.78
2017-12-08T12:28:40.091Z,1000.73
2017-12-08T12:30:33.270Z,1000.67
2017-12-08T12:31:33.271Z,1000.73
2017-12-08T12:33:26.412Z,1000.81
2017-12-08T12:34:26.417Z,1000.81
2017-12-08T12:36:19.590Z,1000.83
2017-12-08T12:37:19.573Z,1000.76
2017-12-08T12:39:12.760Z,1000.77
2017-12-08T12:40:12.765Z,1000.80
2017-12-08T12:42:05.903Z,1000.75
2017-12-08T12:43:05.903Z,1000.74
2017-12-08T12:44:59.079Z,1000.66
2017-12-08T12:45:59.079Z,1000.69
2017-12-08T12:47:52.217Z,1000.65
2017-12-08T12:48:52.228Z,1000.65
2017-12-08T12:50:45.394Z,1000.62
2017-12-08T12:51:45.390Z,1000.64
2017-12-08T12:53:38.536Z,1000.65
2017-12-08T12:54:38.545Z,1000.58
2017-12-08T12:56:31.707Z,1000.53
2017-12-08T12:57:31.709Z,1000.51
2017-12-08T12:59:24.857Z,1000.62
2017-12-08T13:00:24.876Z,1000.62
2017-12-08T13:02:18.061Z,1000.67
2017-12-08T13:03:18.068Z,1000.61
2017-12-08T13:05:11.269Z,1000.62
2017-12-08T13:06:11.357Z,1000.65
2017-12-08T13:08:04.464Z,1000.70
2017-12-08T13:09:04.480Z,1000.67
2017-12-08T13:10:57.679Z,1000.68
2017-12-08T13:11:57.626Z,1000.68
2017-12-08T13:13:50.796Z,1000.71
2017-12-08T13:14:50.789Z,1000.64
2017-12-08T13:16:43.928Z,1000.67
2017-12-08T13:17:43.950Z,1000.65
2017-12-08T13:19:37.099Z,1000.61
2017-12-08T13:20:37.099Z,1000.63
2017-12-08T13:22:30.243Z,1000.57
2017-12-08T13:23:30.245Z,1000.56
2017-12-08T13:25:23.412Z,1000.67
2017-12-08T13:26:23.408Z,1000.59
2017-12-08T13:28:16.587Z,1000.63
2017-12-08T13:29:16.588Z,1000.64
2017-12-08T13:31:09.753Z,1000.64
2017-12-08T13:32:09.758Z,1000.66
2017-12-08T13:34:02.917Z,1000.66
2017-12-08T13:35:02.926Z,1000.66
2017-12-08T13:36:56.059Z,1000.58
2017-12-08T13:37:56.146Z,1000.54
2017-12-08T13:39:49.236Z,1000.54
2017-12-08T13:40:49.233Z,1000.56
2017-12-08T13:42:42.392Z,1000.57
2017-12-08T13:43:42.407Z,1000.56
2017-12-08T13:45:35.566Z,1000.54
2017-12-08T13:46:35.594Z,1000.59
2017-12-08T13:48:28.707Z,1000.59
2017-12-08T13:49:28.719Z,1000.55
2017-12-08T13:51:21.892Z,1000.61
2017-12-08T13:52:21.884Z,1000.58
2017-12-08T13:54:15.050Z,1000.54
2017-12-08T13:55:15.046Z,1000.55
2017-12-08T13:57:08.187Z,1000.63
2017-12-08T13:58:08.203Z,1000.59
2017-12-08T14:00:01.362Z,1000.55
2017-12-08T14:01:01.356Z,1000.53
2017-12-08T14:02:54.501Z,1000.52
2017-12-08T14:03:54.521Z,1000.54
2017-12-08T14:05:47.786Z,1000.52
2017-12-08T14:06:47.674Z,1000.49
2017-12-08T14:08:40.839Z,1000.53
2017-12-08T14:09:40.843Z,1000.51
2017-12-08T14:11:34.032Z,1000.52
2017-12-08T14:12:34.025Z,1000.55
2017-12-08T14:14:27.183Z,1000.54
2017-12-08T14:15:27.183Z,1000.50
2017-12-08T14:17:20.364Z,1000.50
2017-12-08T14:18:20.357Z,1000.50
2017-12-08T14:20:13.525Z,1000.49
2017-12-08T14:21:13.527Z,1000.51
2017-12-08T14:23:06.683Z,1000.56
2017-12-08T14:24:06.706Z,1000.50
2017-12-08T14:25:59.852Z,1000.49
2017-12-08T14:26:59.854Z,1000.52
2017-12-08T14:29:07.378Z,1000.55
2017-12-08T14:30:07.388Z,1000.51
2017-12-08T14:32:00.555Z,1000.52
2017-12-08T14:33:00.566Z,1000.55
2017-12-08T14:34:53.699Z,1000.52
2017-12-08T14:35:53.708Z,1000.48
2017-12-08T14:37:46.860Z,1000.49
2017-12-08T14:38:46.864Z,1000.52
2017-12-08T14:40:40.010Z,1000.57
2017-12-08T14:41:40.085Z,1000.60
2017-12-08T14:43:33.192Z,1000.56
2017-12-08T14:44:33.173Z,1000.57
2017-12-08T14:46:26.361Z,1000.57
2017-12-08T14:47:26.345Z,1000.56
2017-12-08T14:49:19.529Z,1000.53
2017-12-08T14:50:19.490Z,1000.52
2017-12-08T14:52:12.643Z,1000.52
2017-12-08T14:53:12.650Z,1000.56
2017-12-08T14:55:05.870Z,1000.51
2017-12-08T14:56:05.867Z,1000.52
2017-12-08T14:57:59.004Z,1000.50
2017-12-08T14:58:59.009Z,1000.49
2017-12-08T15:00:52.202Z,1000.57
2017-12-08T15:01:52.168Z,1000.40
2017-12-08T15:03:45.318Z,1000.55
2017-12-08T15:04:45.331Z,1000.54
2017-12-08T15:06:38.491Z,1000.57
2017-12-08T15:07:38.476Z,1000.58
2017-12-08T15:09:31.635Z,1000.60
2017-12-08T15:10:31.643Z,1000.59
2017-12-08T15:12:24.790Z,1000.66
2017-12-08T15:13:24.789Z,1000.63
2017-12-08T15:15:17.939Z,1000.67
2017-12-08T15:16:17.952Z,1000.70
2017-12-08T15:18:11.104Z,1000.70
2017-12-08T15:19:11.104Z,1000.69
2017-12-08T15:21:04.370Z,1000.72
2017-12-08T15:22:04.347Z,1000.73
2017-12-08T15:23:57.513Z,1000.78
2017-12-08T15:24:57.530Z,1000.78
2017-12-08T15:26:50.743Z,1000.82
2017-12-08T15:27:50.728Z,1000.85
2017-12-08T15:29:43.838Z,1000.90
2017-12-08T15:30:43.855Z,1000.89
2017-12-08T15:32:37.038Z,1000.89
2017-12-08T15:33:37.038Z,1000.95
2017-12-08T15:35:30.175Z,1000.98
2017-12-08T15:36:30.209Z,1000.97
2017-12-08T15:38:23.350Z,1001.01
2017-12-08T15:39:23.365Z,1001.04
2017-12-08T15:41:16.636Z,1001.03
2017-12-08T15:42:16.633Z,1001.03
2017-12-08T15:44:09.781Z,1001.02
2017-12-08T15:45:09.791Z,1001.00
2017-12-08T15:47:02.938Z,1000.98
2017-12-08T15:48:02.940Z,1000.96
2017-12-08T15:49:56.086Z,1000.90
2017-12-08T15:50:56.104Z,1000.86
2017-12-08T15:52:49.256Z,1000.86
2017-12-08T15:53:49.246Z,1000.85
2017-12-08T15:55:42.382Z,1000.82
2017-12-08T15:56:42.578Z,1000.81
2017-12-08T15:58:35.573Z,1000.86
2017-12-08T15:59:35.595Z,1000.88
2017-12-08T16:01:28.704Z,1001.02
2017-12-08T16:02:28.714Z,1001.05
2017-12-08T16:04:21.902Z,1001.03
2017-12-08T16:05:21.906Z,1001.06
2017-12-08T16:07:15.060Z,1001.14
2017-12-08T16:08:15.052Z,1001.25
2017-12-08T16:10:08.198Z,1001.33
2017-12-08T16:11:08.212Z,1001.41
2017-12-08T16:13:01.686Z,1001.34
2017-12-08T16:14:01.500Z,1001.35
2017-12-08T16:15:54.738Z,1001.36
2017-12-08T16:16:54.738Z,1001.31
2017-12-08T16:18:47.942Z,1001.29
2017-12-08T16:19:47.876Z,1001.31
2017-12-08T16:21:58.394Z,1001.29
2017-12-08T16:22:58.399Z,1001.25
2017-12-08T16:24:51.533Z,1001.27
2017-12-08T16:25:51.532Z,1001.17
2017-12-08T16:27:44.702Z,1001.22
2017-12-08T16:28:44.699Z,1001.19
2017-12-08T16:30:37.861Z,1001.25
2017-12-08T16:31:37.856Z,1001.23
2017-12-08T16:33:31.020Z,1001.26
2017-12-08T16:34:31.021Z,1001.22
2017-12-08T16:36:24.159Z,1001.20
2017-12-08T16:37:24.183Z,1001.18
2017-12-08T16:39:17.324Z,1001.15
2017-12-08T16:40:17.329Z,1001.13
2017-12-08T16:42:10.493Z,1001.16
2017-12-08T16:43:10.492Z,1001.11
2017-12-08T16:45:03.636Z,1001.12
2017-12-08T16:46:03.644Z,1001.10
2017-12-08T16:47:56.817Z,1001.07
2017-12-08T16:48:56.814Z,1001.05
2017-12-08T16:50:49.975Z,1001.04
2017-12-08T16:51:49.964Z,1000.99
2017-12-08T16:53:43.140Z,1000.99
2017-12-08T16:54:43.133Z,1000.99
2017-12-08T16:56:36.273Z,1001.04
2017-12-08T16:57:36.286Z,1001.00
2017-12-08T16:59:29.458Z,1001.04
2017-12-08T17:00:29.451Z,1001.07
2017-12-08T17:02:22.627Z,1001.06
2017-12-08T17:03:22.623Z,1001.08
2017-12-08T17:05:15.778Z,1001.10
2017-12-08T17:06:15.786Z,1001.06
2017-12-08T17:08:08.942Z,1001.08
2017-12-08T17:09:08.947Z,1001.12
2017-12-08T17:11:02.063Z,1001.14
2017-12-08T17:12:02.077Z,1001.14
2017-12-08T17:13:55.242Z,1001.08
2017-12-08T17:14:55.251Z,1001.14
2017-12-08T17:16:48.393Z,1001.12
2017-12-08T17:17:48.404Z,1001.14
2017-12-08T17:19:41.569Z,1001.16
2017-12-08T17:20:41.580Z,1001.15
2017-12-08T17:22:34.719Z,1001.16
2017-12-08T17:23:34.725Z,1001.18
2017-12-08T17:25:27.884Z,1001.21
2017-12-08T17:26:27.912Z,1001.22
2017-12-08T17:28:21.050Z,1001.22
2017-12-08T17:29:21.099Z,1001.23
2017-12-08T17:31:14.198Z,1001.30
2017-12-08T17:32:14.216Z,1001.25
2017-12-08T17:34:07.370Z,1001.30
2017-12-08T17:35:07.378Z,1001.27
2017-12-08T17:37:00.536Z,1001.22
2017-12-08T17:38:00.529Z,1001.23
2017-12-08T17:39:53.687Z,1001.26